Airfield :
LOGIN :

Register | Disclaimer

   EN    FR    IT 

 










Legend :    VFR   Marginal VFR   IFR   Intensive IFR   Very Intensive IFR
Visi :
Ceiling :
>= 8 km
>= 3000ft
5 to 8 km
1000 to 3000 ft
1500m to 5 km
500 to 1000 ft
800 to 1500m
200 to 500 ft
< 800m
< 200 ft
Symbols :   Thunderstorms  Fog  Heavy snow  Heavy precipitations  Wind > 20 kt
SIGMETs :     Misc.  Thunderstorms  Icing  Turbulence  Mountain Waves  Volcanic Ashes






- Airport Elevation : 2356 ft


LZTT - Poprad Tatry

CURRENT METAR :
  • 260200Z 25013KT 9999 SCT050 BKN080 05/02 Q0996

EXPIRED METARs :
  • 260130Z 24012KT 9999 SCT050 BKN080 05/01 Q0997
  • 260100Z 24010KT 9999 SCT050 BKN100 05/01 Q0997
  • 260030Z 25011KT 9999 SCT050 05/01 Q0997
  • 260000Z 25013KT 9999 SCT050 06/01 Q0997
  • 252330Z 24011KT 9999 SCT050 06/01 Q0997

TAF TAF LZTT
Valid from the 26 at 00:00 until the 27 at 00:00 UTC


252300Z 2600/2700 24010KT 9999 BKN050
BECMG 2601/2602 23005KT SCT010 BKN027 OVC060
TEMPO 2602/2608 5000 -RASN
BECMG 2608/2610 27012KT BKN047
TEMPO 2611/2615 -SHRA FEW015 SCT043 BKN070



MET'MAP, your aeronautical weather chart ! - Copyright ORBIFLY December 2007 - Disclaimer

ORBIFLY MET'MAP TEAM :

Programming & Development : Alexandra Zaïnal
Concept & original design : Baudouin d'Aumeries
Assistance for programming : Marc-Olivier Méhu
Technical & hardware support : Manuel Goepfert

Contact : metmap@orbifly.com




SOURCES & CREDITS :

   NOAA